Time;durP1;ratioP1;P1;durP2;ratioP2;P2;SDS_P1;SDS_P2;PMS_P1;PMS_P2;Temp;Humidity;BMP_temperature;BMP_pressure;BME280_temperature;BME280_humidity;BME280_pressure;Samples;Min_cycle;Max_cycle;Signal;HPM_P1;HPM_P2
2022/06/28 00:00:23;;;;;;;17.20;12.70;;;;;;;18.57;90.87;101168.75;7401454;19;20047;-66
2022/06/28 00:02:52;;;;;;;13.43;12.13;;;;;;;18.54;91.88;101160.94;7400257;19;20018;-70
2022/06/28 00:05:20;;;;;;;12.65;11.48;;;;;;;18.49;91.91;101157.66;7401283;19;20028;-69
2022/06/28 00:07:49;;;;;;;14.50;12.65;;;;;;;18.42;91.83;101148.25;7401204;19;20014;-65
2022/06/28 00:10:21;;;;;;;13.45;12.15;;;;;;;18.36;91.91;101155.56;7400628;19;20085;-65
2022/06/28 00:12:50;;;;;;;12.27;11.07;;;;;;;18.34;92.41;101133.53;7398171;19;20037;-65
2022/06/28 00:18:00;;;;;;;13.05;11.75;;;;;;;18.23;92.68;101126.06;7400502;19;20377;-65
2022/06/28 00:20:28;;;;;;;13.05;11.95;;;;;;;18.23;92.74;101122.56;7397753;19;20081;-65
2022/06/28 00:22:57;;;;;;;14.45;12.95;;;;;;;18.21;93.32;101133.25;7400027;19;20018;-65
2022/06/28 00:25:28;;;;;;;13.60;12.30;;;;;;;18.21;92.88;101146.53;7400141;19;20018;-65
2022/06/28 00:27:57;;;;;;;13.50;12.25;;;;;;;18.19;93.68;101150.19;7400847;19;20018;-65
2022/06/28 00:30:26;;;;;;;13.75;12.45;;;;;;;18.16;93.59;101145.00;7400070;19;20015;-65
2022/06/28 00:32:54;;;;;;;13.35;12.02;;;;;;;18.15;93.28;101132.69;7399624;19;20084;-65
2022/06/28 00:35:24;;;;;;;14.68;13.05;;;;;;;18.14;93.99;101146.91;7400927;19;20019;-65
2022/06/28 00:37:52;;;;;;;14.43;13.02;;;;;;;18.13;93.03;101137.22;7400105;19;20033;-65
2022/06/28 00:40:21;;;;;;;14.43;12.93;;;;;;;18.13;93.80;101146.03;7400081;19;20028;-65
2022/06/28 00:42:53;;;;;;;13.55;12.35;;;;;;;18.13;93.71;101146.03;7399453;19;20078;-65
2022/06/28 00:45:22;;;;;;;14.23;12.93;;;;;;;18.12;95.28;101160.25;7399612;19;20509;-65
2022/06/28 00:47:51;;;;;;;13.98;12.55;;;;;;;18.11;93.82;101141.72;7396972;19;20407;-65
2022/06/28 00:50:20;;;;;;;15.15;13.65;;;;;;;18.07;93.84;101130.38;7397311;19;20078;-65
2022/06/28 00:53:02;;;;;;;15.57;14.13;;;;;;;18.05;93.88;101150.84;7396732;19;20098;-65
2022/06/28 00:55:31;;;;;;;16.90;15.13;;;;;;;18.02;93.52;101182.84;7399523;19;20014;-65
2022/06/28 00:58:02;;;;;;;16.65;14.98;;;;;;;18.03;93.57;101213.75;7399284;19;20016;-65
2022/06/28 01:00:31;;;;;;;16.23;14.70;;;;;;;18.03;94.66;101227.91;7399133;19;20014;-65
2022/06/28 01:02:59;;;;;;;17.23;15.57;;;;;;;18.04;94.04;101236.72;7397763;19;20018;-65
2022/06/28 01:05:28;;;;;;;17.48;15.68;;;;;;;18.03;93.71;101240.31;7399007;19;20509;-65
2022/06/28 01:07:57;;;;;;;18.60;16.73;;;;;;;17.98;93.53;101221.94;7398836;19;20019;-65
2022/06/28 01:10:26;;;;;;;19.55;17.45;;;;;;;17.95;94.84;101216.78;7399221;19;20034;-65
2022/06/28 01:12:55;;;;;;;22.23;19.48;;;;;;;17.91;95.73;101229.28;7397786;19;20047;-63
2022/06/28 01:15:26;;;;;;;20.80;18.65;;;;;;;17.88;95.97;101242.72;7396843;19;20015;-65
2022/06/28 01:17:55;;;;;;;23.23;20.20;;;;;;;17.83;96.55;101227.91;7398616;19;20484;-65
2022/06/28 01:20:24;;;;;;;23.10;19.83;;;;;;;17.79;96.46;101202.44;7396359;19;20367;-65
2022/06/28 01:22:56;;;;;;;23.73;21.10;;;;;;;17.76;96.42;101190.16;7398124;19;20070;-65
2022/06/28 01:25:25;;;;;;;22.48;20.08;;;;;;;17.74;97.06;101203.50;7396255;19;20018;-65
2022/06/28 01:27:54;;;;;;;26.05;21.58;;;;;;;17.71;96.82;101216.06;7398590;19;20035;-65
2022/06/28 01:30:23;;;;;;;25.35;22.63;;;;;;;17.71;97.11;101216.91;7398211;19;20014;-65
2022/06/28 01:32:53;;;;;;;25.88;22.48;;;;;;;17.70;97.59;101203.72;7397502;19;20018;-65
2022/06/28 01:35:21;;;;;;;27.05;23.23;;;;;;;17.66;97.51;101199.47;7398042;19;20102;-65
2022/06/28 01:37:50;;;;;;;26.27;22.92;;;;;;;17.66;97.77;101184.41;7395817;19;20098;-64
2022/06/28 01:40:21;;;;;;;26.25;22.45;;;;;;;17.64;97.49;101186.28;7396281;19;20014;-64
2022/06/28 01:42:49;;;;;;;23.85;21.35;;;;;;;17.60;98.19;101171.41;7398067;19;20022;-65
2022/06/28 01:45:19;;;;;;;24.30;21.67;;;;;;;17.56;97.37;101173.31;7398086;19;20217;-65
2022/06/28 01:47:49;;;;;;;26.63;21.40;;;;;;;17.54;97.82;101191.13;7397930;19;20035;-64
2022/06/28 01:50:18;;;;;;;28.02;23.67;;;;;;;17.53;97.55;101194.69;7397593;19;20375;-65
2022/06/28 01:52:46;;;;;;;27.17;22.55;;;;;;;17.48;97.51;101191.38;7397316;19;20047;-65
2022/06/28 01:55:15;;;;;;;23.80;21.27;;;;;;;17.49;97.34;101190.47;7395786;19;20035;-65
2022/06/28 01:57:46;;;;;;;24.15;21.50;;;;;;;17.49;96.83;101197.53;7397252;19;20509;-65
2022/06/28 02:00:16;;;;;;;25.17;21.13;;;;;;;17.46;97.20;101197.69;7396018;19;20070;-65
2022/06/28 02:02:51;;;;;;;23.60;21.02;;;;;;;17.43;96.98;101202.19;7395492;19;20015;-66
2022/06/28 02:05:19;;;;;;;25.70;21.55;;;;;;;17.41;97.28;101216.44;7397343;19;20023;-65
2022/06/28 02:07:52;;;;;;;26.17;22.35;;;;;;;17.41;96.99;101237.66;7397247;19;20027;-65
2022/06/28 02:10:21;;;;;;;24.25;20.63;;;;;;;17.40;97.33;101258.03;7397138;19;20424;-65
2022/06/28 02:12:53;;;;;;;26.13;22.75;;;;;;;17.40;96.62;101263.34;7395000;19;20082;-65
2022/06/28 02:15:22;;;;;;;24.77;22.10;;;;;;;17.42;97.00;101263.25;7393384;19;20018;-65
2022/06/28 02:17:50;;;;;;;25.30;22.40;;;;;;;17.45;96.55;101267.56;7397497;19;20044;-64
2022/06/28 02:20:19;;;;;;;28.08;24.35;;;;;;;17.48;96.62;101270.97;7395805;19;20031;-66
2022/06/28 02:22:47;;;;;;;25.95;22.73;;;;;;;17.53;97.36;101286.69;7396190;19;20035;-66
2022/06/28 02:25:17;;;;;;;26.90;24.00;;;;;;;17.53;96.83;101292.00;7397600;19;20015;-65
2022/06/28 02:27:47;;;;;;;24.42;21.75;;;;;;;17.55;96.67;101298.09;7396350;19;20014;-65
2022/06/28 02:30:19;;;;;;;26.20;23.15;;;;;;;17.55;96.46;101303.41;7395950;19;20465;-64
2022/06/28 02:32:47;;;;;;;23.90;21.20;;;;;;;17.56;97.22;101297.16;7395630;19;20019;-65
2022/06/28 02:40:37;;;;;;;26.48;22.35;;;;;;;17.56;96.60;101321.03;7394613;19;20014;-65
2022/06/28 02:43:06;;;;;;;22.48;20.08;;;;;;;17.55;96.34;101316.66;7395140;19;20371;-65
2022/06/28 02:45:39;;;;;;;23.45;20.25;;;;;;;17.54;96.22;101325.53;7396022;19;20078;-65
2022/06/28 02:48:09;;;;;;;24.58;21.98;;;;;;;17.55;96.62;101316.66;7396524;19;20015;-65
2022/06/28 02:50:37;;;;;;;23.10;20.55;;;;;;;17.55;95.99;101324.63;7394323;19;20031;-64
2022/06/28 02:53:06;;;;;;;22.55;20.05;;;;;;;17.55;96.03;101332.56;7395268;19;20092;-65
2022/06/28 02:55:34;;;;;;;24.02;21.45;;;;;;;17.55;95.81;101327.28;7395484;19;20010;-65
2022/06/28 02:58:03;;;;;;;26.80;20.25;;;;;;;17.55;95.98;101337.88;7394046;19;20035;-64
2022/06/28 03:00:31;;;;;;;22.13;19.83;;;;;;;17.54;95.88;101342.34;7393960;19;20070;-65
2022/06/28 03:03:02;;;;;;;24.55;21.92;;;;;;;17.55;95.88;101353.81;7395022;19;20014;-65
2022/06/28 03:05:31;;;;;;;25.90;22.08;;;;;;;17.57;95.92;101357.25;7395420;19;20086;-65
2022/06/28 03:07:59;;;;;;;23.17;20.45;;;;;;;17.57;95.81;101354.59;7393345;19;20347;-65
2022/06/28 03:10:28;;;;;;;23.77;20.50;;;;;;;17.59;95.73;101361.56;7395268;19;20022;-64
2022/06/28 03:12:57;;;;;;;23.30;20.13;;;;;;;17.62;95.41;101370.34;7393352;19;20031;-65
2022/06/28 03:15:25;;;;;;;22.67;20.27;;;;;;;17.62;95.75;101373.84;7395343;19;20035;-65
2022/06/28 03:17:54;;;;;;;21.00;18.90;;;;;;;17.61;95.13;101377.44;7394913;19;20039;-65
2022/06/28 03:20:25;;;;;;;22.73;20.17;;;;;;;17.58;94.99;101381.06;7393409;19;20035;-64
2022/06/28 03:22:53;;;;;;;24.13;21.52;;;;;;;17.59;95.35;101376.63;7394782;19;20022;-64
2022/06/28 03:25:22;;;;;;;23.48;20.92;;;;;;;17.62;95.18;101367.69;7394893;19;20015;-64
2022/06/28 03:27:51;;;;;;;22.88;20.58;;;;;;;17.63;94.80;101369.41;7401501;19;20022;-64
2022/06/28 03:30:19;;;;;;;23.15;20.67;;;;;;;17.65;94.76;101376.38;7402525;19;20371;-65
2022/06/28 03:32:54;;;;;;;24.65;22.13;;;;;;;17.66;95.12;101375.44;7401325;19;20014;-64
2022/06/28 03:35:26;;;;;;;24.00;21.55;;;;;;;17.65;95.14;101384.31;7402297;19;20015;-64
2022/06/28 03:37:54;;;;;;;23.10;20.73;;;;;;;17.65;95.04;101381.66;7399202;19;20027;-65
2022/06/28 03:40:23;;;;;;;25.85;21.98;;;;;;;17.64;94.72;101384.41;7399365;19;20014;-65
2022/06/28 03:42:52;;;;;;;24.25;21.63;;;;;;;17.62;95.07;101384.47;7398837;19;20022;-65
2022/06/28 03:45:20;;;;;;;24.90;21.38;;;;;;;17.59;95.09;101396.06;7402018;19;20018;-65
2022/06/28 03:47:49;;;;;;;24.60;21.88;;;;;;;17.59;95.14;101387.22;7401466;19;20014;-65
2022/06/28 03:50:17;;;;;;;23.15;20.42;;;;;;;17.59;95.37;101387.22;7398622;19;20090;-66
2022/06/28 03:52:48;;;;;;;22.60;20.20;;;;;;;17.56;94.69;101382.06;7398600;19;20031;-66
2022/06/28 03:55:17;;;;;;;24.05;21.58;;;;;;;17.53;94.90;101383.06;7401455;19;20031;-67
2022/06/28 03:57:45;;;;;;;24.70;21.83;;;;;;;17.51;95.18;101392.84;7401346;19;20086;-66
2022/06/28 04:00:15;;;;;;;24.58;21.98;;;;;;;17.50;95.18;101398.22;7397716;19;20380;-65
2022/06/28 04:02:44;;;;;;;23.02;20.63;;;;;;;17.46;95.33;101400.13;7400203;19;20026;-66
2022/06/28 04:05:12;;;;;;;26.08;22.67;;;;;;;17.42;95.52;101407.34;7400469;19;20015;-66
2022/06/28 04:07:41;;;;;;;26.25;22.10;;;;;;;17.40;95.15;101405.69;7400606;19;20032;-67
2022/06/28 04:10:12;;;;;;;24.65;21.48;;;;;;;17.38;95.14;101400.44;7400212;19;20031;-66
2022/06/28 04:12:47;;;;;;;25.42;21.75;;;;;;;17.37;95.98;101404.00;7397754;19;20029;-67
2022/06/28 04:15:16;;;;;;;25.55;22.67;;;;;;;17.34;96.14;101400.63;7400336;19;20072;-66
2022/06/28 04:17:44;;;;;;;29.65;23.98;;;;;;;17.30;95.81;101405.22;7400239;19;20027;-66
2022/06/28 04:20:14;;;;;;;29.20;22.80;;;;;;;17.28;96.40;101400.88;7398258;19;20041;-66
2022/06/28 04:22:42;;;;;;;25.85;21.92;;;;;;;17.24;96.79;101398.34;7399149;19;20029;-65
2022/06/28 04:25:14;;;;;;;26.38;21.75;;;;;;;17.20;96.80;101393.22;7399319;19;20524;-66
2022/06/28 04:27:42;;;;;;;27.38;22.13;;;;;;;17.16;97.07;101394.25;7400205;19;20015;-65
2022/06/28 04:30:13;;;;;;;28.67;21.92;;;;;;;17.12;97.29;101397.97;7396644;19;20037;-66
2022/06/28 04:32:41;;;;;;;27.23;22.10;;;;;;;17.06;97.08;101391.97;7398082;19;20493;-66
2022/06/28 04:35:10;;;;;;;26.00;21.00;;;;;;;17.03;97.31;101397.38;7396250;19;20015;-67
2022/06/28 04:37:39;;;;;;;25.75;21.80;;;;;;;16.98;97.55;101387.88;7397974;19;20455;-66
2022/06/28 04:40:09;;;;;;;23.17;20.40;;;;;;;16.95;97.34;101388.88;7398182;19;20035;-65
2022/06/28 04:42:41;;;;;;;28.27;22.20;;;;;;;16.91;97.40;101389.91;7396119;19;20371;-66
2022/06/28 04:45:10;;;;;;;25.60;21.67;;;;;;;16.90;98.30;101382.84;7399093;19;20485;-66
2022/06/28 04:47:39;;;;;;;28.58;21.83;;;;;;;16.87;97.85;101380.31;7399177;19;20026;-66
2022/06/28 04:50:08;;;;;;;22.42;19.52;;;;;;;16.86;98.50;101389.19;7399080;19;20015;-67
2022/06/28 04:52:37;;;;;;;24.83;20.50;;;;;;;16.84;97.58;101380.44;7396135;19;20025;-68
2022/06/28 04:55:06;;;;;;;19.48;17.25;;;;;;;16.81;97.58;101377.88;7395613;19;20371;-65
2022/06/28 04:57:34;;;;;;;19.33;17.33;;;;;;;16.79;97.45;101380.59;7397689;19;20018;-65
2022/06/28 05:00:07;;;;;;;20.50;17.33;;;;;;;16.77;97.12;101378.00;7397339;19;20018;-66
2022/06/28 05:02:36;;;;;;;17.67;15.57;;;;;;;16.76;96.88;101384.22;7396253;19;20019;-66
2022/06/28 05:05:05;;;;;;;18.23;16.00;;;;;;;16.76;97.14;101373.63;7393535;19;20021;-66
2022/06/28 05:07:34;;;;;;;16.75;15.00;;;;;;;16.75;96.37;101366.59;7397803;19;20014;-66
2022/06/28 05:10:03;;;;;;;18.10;15.52;;;;;;;16.75;96.83;101374.53;7398402;19;20044;-66
2022/06/28 05:12:32;;;;;;;16.67;14.27;;;;;;;16.75;96.98;101371.91;7395520;19;20011;-66
2022/06/28 05:15:00;;;;;;;19.65;15.85;;;;;;;16.76;96.47;101363.03;7394477;19;20018;-64
2022/06/28 05:17:31;;;;;;;14.82;13.23;;;;;;;16.81;96.20;101359.34;7396416;19;20407;-65
2022/06/28 05:20:00;;;;;;;13.73;12.38;;;;;;;16.84;95.68;101369.84;7396318;19;20014;-66
2022/06/28 05:22:29;;;;;;;12.07;10.95;;;;;;;16.84;94.54;101369.84;7396614;19;20018;-66
2022/06/28 05:24:57;;;;;;;12.38;10.52;;;;;;;16.85;94.69;101367.13;7396967;19;20010;-66
2022/06/28 05:27:26;;;;;;;11.23;9.82;;;;;;;16.88;94.59;101374.09;7395517;19;20420;-66
2022/06/28 05:29:54;;;;;;;12.35;10.55;;;;;;;16.90;94.28;101378.41;7397476;19;20015;-67
2022/06/28 05:32:23;;;;;;;9.80;8.90;;;;;;;16.90;93.59;101367.81;7398358;19;20018;-66
2022/06/28 05:34:54;;;;;;;9.88;8.88;;;;;;;16.92;93.96;101373.06;7397272;19;20022;-65
2022/06/28 05:37:22;;;;;;;9.80;8.88;;;;;;;16.96;93.61;101372.06;7396982;19;20509;-66
2022/06/28 05:39:51;;;;;;;10.32;9.32;;;;;;;17.00;93.52;101373.66;7395929;19;20028;-66
2022/06/28 05:42:20;;;;;;;10.00;8.88;;;;;;;17.00;93.11;101372.81;7396668;19;20018;-66
2022/06/28 05:44:48;;;;;;;9.05;8.05;;;;;;;17.01;93.21;101378.03;7395065;19;20035;-66
2022/06/28 05:47:17;;;;;;;7.78;6.97;;;;;;;17.01;92.35;101379.81;7395975;19;20024;-66
2022/06/28 05:49:45;;;;;;;8.55;7.68;;;;;;;16.99;92.44;101373.72;7394138;19;20488;-66
2022/06/28 05:52:16;;;;;;;8.35;7.00;;;;;;;17.04;92.17;101382.34;7396293;19;20023;-65
2022/06/28 05:54:45;;;;;;;8.10;7.30;;;;;;;17.04;90.85;101392.97;7393974;19;20011;-66
2022/06/28 05:57:13;;;;;;;7.38;6.68;;;;;;;17.04;91.32;101382.34;7396610;19;20387;-66
2022/06/28 05:59:42;;;;;;;7.20;6.53;;;;;;;17.07;91.52;101390.19;7395155;19;20044;-66
2022/06/28 06:02:10;;;;;;;7.38;6.68;;;;;;;17.12;91.03;101377.59;7396688;19;20019;-67
2022/06/28 06:04:39;;;;;;;7.50;6.80;;;;;;;17.14;91.09;101374.91;7393996;19;20018;-66
2022/06/28 06:07:07;;;;;;;6.93;6.32;;;;;;;17.17;90.65;101380.09;7396888;19;20426;-67
2022/06/28 06:09:42;;;;;;;7.57;6.65;;;;;;;17.18;90.21;101374.72;7396380;19;20386;-67
2022/06/28 06:12:11;;;;;;;7.15;6.28;;;;;;;17.21;90.11;101369.31;7395649;19;20028;-67
2022/06/28 06:14:39;;;;;;;6.75;6.05;;;;;;;17.20;88.45;101374.66;7394039;19;20014;-67
2022/06/28 06:17:08;;;;;;;7.15;6.45;;;;;;;17.22;88.88;101389.56;7393572;19;20380;-67
2022/06/28 06:19:36;;;;;;;6.72;6.07;;;;;;;17.24;88.91;101374.47;7394081;19;20011;-67
2022/06/28 06:22:05;;;;;;;6.72;6.13;;;;;;;17.25;88.21;101375.34;7393918;19;20031;-66
2022/06/28 06:24:33;;;;;;;6.10;5.50;;;;;;;17.31;87.94;101372.44;7393276;19;20073;-65
2022/06/28 06:27:05;;;;;;;6.65;6.00;;;;;;;17.36;87.83;101377.56;7396034;19;20014;-66
2022/06/28 06:29:34;;;;;;;7.95;6.50;;;;;;;17.43;87.12;101376.41;7395313;19;20085;-66
2022/06/28 06:32:02;;;;;;;6.38;5.78;;;;;;;17.50;87.35;101396.44;7395021;19;20485;-66
2022/06/28 06:34:31;;;;;;;5.50;5.07;;;;;;;17.58;86.92;101388.19;7393134;19;20035;-66
2022/06/28 06:36:59;;;;;;;6.60;6.00;;;;;;;17.65;86.61;101389.63;7394176;19;20485;-66
2022/06/28 06:39:28;;;;;;;8.65;6.03;;;;;;;17.71;86.72;101392.03;7394535;19;20039;-66
2022/06/28 06:41:56;;;;;;;14.75;11.13;;;;;;;17.81;86.74;101394.31;7392221;19;20517;-67
2022/06/28 06:44:27;;;;;;;10.75;8.20;;;;;;;17.86;85.47;101398.50;7392620;19;20484;-65
2022/06/28 06:46:57;;;;;;;7.90;7.10;;;;;;;17.92;85.07;101413.31;7393775;19;20028;-66
2022/06/28 06:49:26;;;;;;;8.13;7.32;;;;;;;17.94;85.03;101416.78;7392698;19;20011;-66
2022/06/28 06:51:54;;;;;;;8.02;7.07;;;;;;;17.93;84.95;101417.69;7393819;19;20494;-66
2022/06/28 06:54:23;;;;;;;9.20;7.22;;;;;;;17.92;84.58;101424.78;7392273;19;20477;-66
2022/06/28 06:56:52;;;;;;;7.40;6.70;;;;;;;17.91;83.34;101427.50;7394172;19;20025;-65
2022/06/28 06:59:20;;;;;;;7.00;6.30;;;;;;;17.91;83.06;101432.81;7392349;19;20489;-66
2022/06/28 07:01:51;;;;;;;7.18;6.47;;;;;;;17.93;83.48;101430.94;7391673;19;20035;-65
2022/06/28 07:04:20;;;;;;;5.63;5.05;;;;;;;17.95;82.51;101441.56;7393278;19;20494;-67
2022/06/28 07:06:48;;;;;;;6.90;5.72;;;;;;;17.95;82.50;101436.25;7394553;19;20036;-65
2022/06/28 07:09:17;;;;;;;5.40;5.00;;;;;;;17.99;82.34;101457.28;7394978;19;20014;-65
2022/06/28 07:11:46;;;;;;;4.63;4.13;;;;;;;18.05;80.75;101446.41;7392921;19;20035;-66
2022/06/28 07:14:14;;;;;;;5.60;5.10;;;;;;;18.05;79.19;101457.03;7392774;19;20014;-66
2022/06/28 07:16:43;;;;;;;5.70;5.10;;;;;;;18.05;80.47;101445.56;7394276;19;20485;-66
2022/06/28 07:19:14;;;;;;;6.10;4.80;;;;;;;18.06;81.42;101442.81;7394321;19;20387;-66
2022/06/28 07:21:44;;;;;;;4.57;4.18;;;;;;;18.12;81.07;101452.34;7391943;19;20031;-67
2022/06/28 07:24:13;;;;;;;4.80;4.40;;;;;;;18.15;79.31;101468.13;7392806;19;20481;-67
2022/06/28 07:26:41;;;;;;;4.97;4.53;;;;;;;18.20;79.79;101459.97;7393643;19;20481;-65
2022/06/28 07:29:10;;;;;;;5.05;3.63;;;;;;;18.24;79.99;101472.19;7393766;19;20480;-66
2022/06/28 07:31:40;;;;;;;4.75;4.35;;;;;;;18.30;79.69;101469.28;7392459;19;20098;-66
2022/06/28 07:34:08;;;;;;;4.82;4.40;;;;;;;18.34;78.94;101478.84;7392047;19;20030;-66
2022/06/28 07:36:41;;;;;;;4.20;3.85;;;;;;;18.37;78.36;101468.09;7391425;19;20014;-66
2022/06/28 07:39:09;;;;;;;7.32;5.05;;;;;;;18.40;77.71;101475.91;7391231;19;20485;-65
2022/06/28 07:41:38;;;;;;;7.25;6.55;;;;;;;18.45;77.10;101470.41;7391872;19;20086;-66
2022/06/28 07:44:07;;;;;;;5.38;4.85;;;;;;;18.53;78.30;101478.91;7391986;19;20027;-67
2022/06/28 07:46:35;;;;;;;6.00;5.50;;;;;;;18.61;77.42;101485.69;7393577;19;20028;-66
2022/06/28 07:49:04;;;;;;;6.43;5.60;;;;;;;18.64;76.88;101474.91;7393796;19;20018;-66
2022/06/28 07:54:16;;;;;;;6.93;5.45;;;;;;;18.80;76.48;101486.59;7391826;19;20367;-65
2022/06/28 07:56:44;;;;;;;11.15;5.32;;;;;;;18.88;75.57;101495.09;7394142;19;20022;-66
2022/06/28 07:59:13;;;;;;;7.70;4.95;;;;;;;18.96;72.83;101493.94;7391881;19;20014;-66
2022/06/28 08:01:41;;;;;;;5.70;4.55;;;;;;;19.01;72.80;101491.91;7392557;19;20018;-66
2022/06/28 08:04:11;;;;;;;4.30;3.90;;;;;;;19.05;72.07;101502.31;7391955;19;20019;-65
2022/06/28 08:06:40;;;;;;;5.35;4.65;;;;;;;19.11;72.54;101513.63;7392630;19;20011;-66
2022/06/28 08:09:09;;;;;;;5.32;4.68;;;;;;;19.20;72.27;101510.56;7393496;19;20022;-66
2022/06/28 08:11:40;;;;;;;5.57;4.97;;;;;;;19.30;71.60;101513.66;7393275;19;20011;-66
2022/06/28 08:14:11;;;;;;;5.97;5.03;;;;;;;19.42;71.17;101509.56;7394950;19;20027;-66
2022/06/28 08:16:40;;;;;;;11.68;4.88;;;;;;;19.53;71.08;101517.91;7398333;19;20078;-66
2022/06/28 08:19:09;;;;;;;20.20;5.63;;;;;;;19.63;69.84;101513.00;7400372;19;20015;-65
2022/06/28 08:21:38;;;;;;;6.00;5.00;;;;;;;19.68;70.00;101524.31;7398585;19;20022;-66
2022/06/28 08:24:07;;;;;;;5.40;4.90;;;;;;;19.74;70.04;101521.34;7399162;19;20094;-66
2022/06/28 08:26:42;;;;;;;5.38;4.88;;;;;;;19.78;69.87;101530.91;7397183;19;20111;-66
2022/06/28 08:29:13;;;;;;;8.02;4.75;;;;;;;19.80;69.94;101526.38;7399991;19;20033;-66
2022/06/28 08:31:42;;;;;;;11.75;5.80;;;;;;;19.81;70.34;101538.72;7400023;19;20363;-66
2022/06/28 08:34:11;;;;;;;9.63;6.25;;;;;;;19.80;69.61;101538.81;7396890;19;20014;-65
2022/06/28 08:36:40;;;;;;;6.18;4.55;;;;;;;19.80;69.87;101531.72;7396848;19;20014;-66
2022/06/28 08:39:09;;;;;;;15.95;5.43;;;;;;;19.83;69.01;101533.38;7399567;19;20011;-66
2022/06/28 08:41:37;;;;;;;4.50;4.10;;;;;;;19.86;68.88;101526.09;7398166;19;20022;-66
2022/06/28 08:44:06;;;;;;;5.50;4.00;;;;;;;19.93;68.54;101529.34;7397176;19;20014;-66
2022/06/28 08:46:38;;;;;;;6.38;4.63;;;;;;;19.98;66.93;101532.63;7399553;19;20028;-66
2022/06/28 08:49:15;;;;;;;5.72;4.28;;;;;;;20.05;67.57;101532.34;7396383;19;20014;-66
2022/06/28 08:51:44;;;;;;;5.55;5.05;;;;;;;20.13;67.89;101527.47;7397094;19;20035;-66
2022/06/28 08:54:15;;;;;;;4.78;4.30;;;;;;;20.15;67.65;101537.13;7397318;19;20031;-69
2022/06/28 08:56:43;;;;;;;4.43;3.80;;;;;;;20.19;67.91;101521.84;7396049;19;20506;-67
2022/06/28 08:59:12;;;;;;;4.78;4.03;;;;;;;20.26;67.33;101525.94;7398878;19;20034;-67
2022/06/28 09:01:50;;;;;;;5.85;5.25;;;;;;;20.34;66.90;101522.88;7396835;19;20031;-67
2022/06/28 09:04:19;;;;;;;6.20;4.68;;;;;;;20.46;66.96;101537.38;7396202;19;20014;-66
2022/06/28 09:06:48;;;;;;;5.65;5.05;;;;;;;20.57;66.03;101529.69;7398272;19;20031;-66
2022/06/28 09:09:16;;;;;;;6.20;4.93;;;;;;;20.70;65.08;101529.94;7396945;19;20021;-66
2022/06/28 09:11:47;;;;;;;5.55;3.58;;;;;;;20.83;63.94;101543.53;7397756;19;20011;-67
2022/06/28 09:14:27;;;;;;;5.78;2.72;;;;;;;20.93;59.59;101542.09;7395935;19;20342;-66
2022/06/28 09:16:59;;;;;;;3.30;2.53;;;;;;;20.98;58.14;101549.88;7398241;19;20037;-66
2022/06/28 09:19:36;;;;;;;5.75;3.25;;;;;;;21.05;58.70;101547.72;7397610;19;20485;-70
2022/06/28 09:22:06;;;;;;;3.15;2.50;;;;;;;21.10;60.41;101540.34;7396135;19;20347;-69
2022/06/28 09:24:35;;;;;;;3.08;2.60;;;;;;;21.13;59.70;101550.84;7394911;19;20026;-70
2022/06/28 09:27:08;;;;;;;4.90;2.88;;;;;;;21.09;59.17;101535.94;7397530;19;20037;-70
2022/06/28 09:29:48;;;;;;;3.70;2.83;;;;;;;21.07;59.34;101541.38;7395492;19;20031;-70
2022/06/28 09:32:28;;;;;;;3.50;2.60;;;;;;;21.10;59.93;101541.19;7396794;19;20011;-69
2022/06/28 09:34:59;;;;;;;4.28;3.35;;;;;;;21.14;60.12;101524.09;7396537;19;20085;-69
2022/06/28 09:37:42;;;;;;;3.25;2.97;;;;;;;21.21;58.83;101529.94;7397063;19;20019;-70
2022/06/28 09:40:16;;;;;;;3.42;3.10;;;;;;;21.29;60.03;101529.53;7395152;19;20082;-69
2022/06/28 09:42:46;;;;;;;2.90;2.60;;;;;;;21.32;58.63;101530.22;7395483;19;20014;-70
2022/06/28 09:45:17;;;;;;;5.50;2.47;;;;;;;21.34;58.70;101526.63;7396577;19;20010;-71
2022/06/28 09:47:51;;;;;;;3.47;2.20;;;;;;;21.40;57.96;101520.94;7394949;19;20097;-71
2022/06/28 09:50:23;;;;;;;2.55;2.20;;;;;;;21.47;57.73;101530.31;7396536;19;20018;-71
2022/06/28 09:52:53;;;;;;;2.95;1.90;;;;;;;21.53;55.51;101532.66;7396432;19;20025;-70
2022/06/28 09:55:22;;;;;;;2.85;2.20;;;;;;;21.60;55.07;101528.72;7396869;19;20014;-69
2022/06/28 09:57:51;;;;;;;8.55;2.13;;;;;;;21.72;54.35;101528.97;7396585;19;20078;-70
2022/06/28 10:00:24;;;;;;;1.92;1.67;;;;;;;21.87;53.88;101516.56;7394686;19;20010;-70
2022/06/28 10:03:01;;;;;;;;;;;;;;;22.02;52.25;101522.84;7395420;19;20082;-68
2022/06/28 10:05:30;;;;;;;3.63;1.60;;;;;;;22.13;53.11;101523.94;7393808;19;19928;-69
2022/06/28 10:07:59;;;;;;;2.05;1.77;;;;;;;22.22;52.63;101522.53;7396137;19;20014;-69
2022/06/28 10:10:28;;;;;;;2.88;1.60;;;;;;;22.30;52.06;101522.09;7396070;19;20019;-69
2022/06/28 10:15:59;;;;;;;1.80;1.45;;;;;;;22.43;48.17;101514.22;7397647;19;20090;-69
2022/06/28 10:18:32;;;;;;;2.30;1.40;;;;;;;22.41;49.04;101521.50;7396778;19;20006;-71
2022/06/28 10:21:01;;;;;;;1.50;1.40;;;;;;;22.44;50.56;101530.19;7396481;19;20363;-69
2022/06/28 10:23:37;;;;;;;4.38;1.65;;;;;;;22.51;50.22;101514.63;7395584;19;20098;-71
2022/06/28 10:26:11;;;;;;;3.65;1.80;;;;;;;22.63;50.82;101512.19;7395501;19;20014;-69
2022/06/28 10:28:43;;;;;;;2.13;1.67;;;;;;;22.77;49.50;101515.75;7394789;19;20386;-69
2022/06/28 10:31:47;;;;;;;4.05;2.30;;;;;;;22.87;48.23;101518.69;7395344;19;20015;-70
2022/06/28 10:34:24;;;;;;;2.55;1.50;;;;;;;22.93;43.92;101521.00;7393704;19;20360;-71
2022/06/28 10:36:55;;;;;;;1.80;1.10;;;;;;;23.00;45.88;101509.91;7393306;19;20014;-69
2022/06/28 10:39:26;;;;;;;1.30;1.17;;;;;;;23.07;44.63;101525.47;7393383;19;20015;-70
2022/06/28 10:41:56;;;;;;;2.03;1.13;;;;;;;23.18;44.21;101506.13;7394428;19;20019;-69
2022/06/28 10:44:27;;;;;;;1.88;1.08;;;;;;;23.29;44.93;101509.94;7393691;19;20086;-70
2022/06/28 10:47:13;;;;;;;2.17;1.27;;;;;;;23.38;43.48;101515.56;7394025;19;20044;-69
2022/06/28 10:50:02;;;;;;;5.28;1.10;;;;;;;23.51;43.58;101501.41;7393055;19;20015;-69
2022/06/28 10:52:34;;;;;;;1.15;1.05;;;;;;;23.56;43.63;101513.50;7394867;19;20027;-69
2022/06/28 10:55:24;;;;;;;2.17;1.13;;;;;;;23.65;43.16;101493.31;7394228;19;20078;-71
2022/06/28 10:58:09;;;;;;;3.15;1.38;;;;;;;23.77;43.05;101501.50;7392384;19;20492;-70
2022/06/28 11:00:53;;;;;;;1.30;1.10;;;;;;;23.88;44.47;101502.50;7394275;19;20015;-70
2022/06/28 11:03:22;;;;;;;0.98;0.80;;;;;;;23.93;44.60;101499.56;7391738;19;20014;-69
2022/06/28 11:05:56;;;;;;;2.08;1.10;;;;;;;23.90;42.76;101497.06;7391927;19;20032;-69
2022/06/28 11:08:49;;;;;;;1.90;0.93;;;;;;;23.86;43.55;101495.53;7393999;19;20020;-69
2022/06/28 11:11:17;;;;;;;0.85;0.80;;;;;;;23.75;44.47;101510.50;7393633;19;20038;-70
2022/06/28 11:13:46;;;;;;;1.02;0.93;;;;;;;23.74;44.33;101506.09;7391744;19;20014;-70
2022/06/28 11:16:47;;;;;;;1.80;1.23;;;;;;;23.68;42.97;101511.00;7393270;19;20039;-71
2022/06/28 11:19:16;;;;;;;1.20;0.88;;;;;;;23.63;44.46;101491.69;7391497;19;20078;-69
2022/06/28 11:21:48;;;;;;;1.00;0.90;;;;;;;23.62;44.23;101506.03;7390833;19;20473;-69
2022/06/28 11:24:17;;;;;;;1.63;1.00;;;;;;;23.59;44.78;101494.59;7389227;19;20031;-69
2022/06/28 11:29:27;;;;;;;1.33;1.00;;;;;;;23.55;44.55;101493.03;7392508;19;20025;-69
2022/06/28 11:31:57;;;;;;;2.53;1.50;;;;;;;23.57;44.49;101498.31;7391741;19;20014;-69
2022/06/28 11:34:27;;;;;;;1.73;1.17;;;;;;;23.65;44.23;101495.13;7390615;19;20018;-69
2022/06/28 11:37:00;;;;;;;1.10;1.00;;;;;;;23.73;43.39;101485.66;7392861;19;20029;-70
2022/06/28 11:39:28;;;;;;;2.00;1.00;;;;;;;23.87;43.58;101484.72;7393062;19;20033;-70
2022/06/28 11:41:58;;;;;;;1.20;0.80;;;;;;;24.05;42.32;101479.13;7394057;19;20018;-70
2022/06/28 11:44:27;;;;;;;3.33;1.70;;;;;;;24.23;42.57;101469.81;7391318;19;20094;-69
2022/06/28 11:46:57;;;;;;;1.42;0.98;;;;;;;24.38;41.78;101478.66;7393615;19;20339;-71